Coffeyville, KS (67337)

6:40 AM CDT on April 18, 2015 (GMT -0500)
Coffeyville Municipal | | Change Station
CLOSE
Current Station
Airport
Location: Coffeyville,
Elevation: 751 ft
Nearby Weather Stations

Elev 751 ft 37.09 °N, 95.57 °W | Updated 7 minutes ago

Thunderstorm
Thunderstorm
62 °F
Feels Like 62 °F
N
13
Wind Variable Wind from NW
Gusts 20 mph

Today
High -- | Low -- °F
--% Chance of Precip.
Yesterday
High -- | Low -- °F
Precip. -- in
6:44 AM 7:59 PM
Waning Crescent, 0% visible
Pressure 29.90 in
Visibility 10.0 miles
Clouds Mostly Cloudy 8500 ft
Mostly Cloudy 10000 ft
Dew Point 58 °F
Humidity 86%
Rainfall 0.19 in
Snow Depth Not available.
UV 0 out of 12
Pollen 2.40 out of 12
Air Quality Not available.
Flu Activity Sporadic
SPECI KCFV 181133Z AUTO 31011G17KT 10SM VCTS -RA BKN085 BKN100 17/14 A2990 RMK AO2 WSHFT 1047 LTG DSNT NW-E TSE27 P0001 T01670144

More Conditions Fewer Conditions

Pressure 29.90 in
Visibility 10.0 miles
Clouds Mostly Cloudy 8500 ft
Mostly Cloudy 10000 ft
Dew Point 58 °F
Humidity 86%
Rainfall 0.19 in
Snow Depth Not available.
UV 0 out of 12
Pollen 2.40 out of 12
Air Quality Not available.
Flu Activity Sporadic
SPECI KCFV 181133Z AUTO 31011G17KT 10SM VCTS -RA BKN085 BKN100 17/14 A2990 RMK AO2 WSHFT 1047 LTG DSNT NW-E TSE27 P0001 T01670144

More Conditions Fewer Conditions

10-Day Weather Forecast

Almanac

Astronomy

Apr. 18, 2015 Rise Set
Actual Time
Civil Twilight
Nautical Twilight
Astronomical Twilight
Moon
Length of Visible Light
Length of Day
Tomorrow will be .
, % of the Moon is Illuminated

Today's Extremes

State Highs State Lows

Community

WunderPhotos

Upload Photos

1,814,368 photos uploaded!

WunderBlogs® & News

Nearby

Air Quality

  Air Quality AQ Index Pollutant
Not available.

Snow Depth

Station Depth Elevation

Earthquake Activity

City Distance Mag. Time & Date
Minimum magnitude displayed is 2.5.

Coastal Water Temperatures

Place Temperature

Stations

Nearby Weather Stations

Station Location Temp. Windchill Dew Point Humidity Wind Precip. Elev Updated Type